Time;durP1;ratioP1;P1;durP2;ratioP2;P2;SDS_P1;SDS_P2;PMS_P1;PMS_P2;Temp;Humidity;BMP_temperature;BMP_pressure;BME280_temperature;BME280_humidity;BME280_pressure;Samples;Min_cycle;Max_cycle;Signal;HPM_P1;HPM_P2
2023/07/08 00:02:22;;;;;;;;;;;16.20;69.50;;;;;;6159928;23;20357;-92
2023/07/08 00:04:57;;;;;;;;;;;16.20;69.50;;;;;;6174721;23;19946;-93
2023/07/08 00:10:12;;;;;;;;;;;16.10;69.60;;;;;;6195419;23;20387;-92
2023/07/08 00:12:37;;;;;;;;;;;16.10;69.70;;;;;;6147088;23;19931;-92
2023/07/08 00:18:39;;;;;;;;;;;16.10;69.70;;;;;;6173651;23;19919;-90
2023/07/08 00:21:14;;;;;;;;;;;16.10;69.90;;;;;;6215925;23;19930;-92
2023/07/08 00:24:19;;;;;;;;;;;16.00;69.80;;;;;;6176260;23;19920;-91
2023/07/08 00:26:47;;;;;;;;;;;16.00;70.00;;;;;;6178696;23;19923;-94
2023/07/08 00:32:53;;;;;;;;;;;16.00;70.10;;;;;;6152858;22;19933;-92
2023/07/08 00:35:33;;;;;;;;;;;16.00;70.30;;;;;;6217344;23;19923;-93
2023/07/08 00:38:12;;;;;;;;;;;15.90;70.20;;;;;;6184944;23;20374;-91
2023/07/08 00:41:24;;;;;;;;;;;;;;;;;;;;;
2023/07/08 00:44:22;;;;;;;;;;;15.80;70.40;;;;;;6195913;23;19986;-92
2023/07/08 00:46:51;;;;;;;;;;;15.80;70.40;;;;;;6212128;23;19934;-95
2023/07/08 00:49:45;;;;;;;;;;;;;;;;;;;;;
2023/07/08 00:52:22;;;;;;;;;;;15.80;70.40;;;;;;6209929;23;20364;-91
2023/07/08 00:55:16;;;;;;;;;;;15.80;70.50;;;;;;6173299;23;19919;-91
2023/07/08 00:57:51;;;;;;;;;;;15.80;70.50;;;;;;6140683;23;19927;-92
2023/07/08 01:00:32;;;;;;;;;;;15.80;70.60;;;;;;6193184;23;19924;-93
2023/07/08 01:03:06;;;;;;;;;;;15.80;70.70;;;;;;6190886;23;19927;-92
2023/07/08 01:05:59;;;;;;;;;;;15.70;70.60;;;;;;6165831;23;20410;-92
2023/07/08 01:08:50;;;;;;;;;;;15.70;70.80;;;;;;6147822;23;20319;-92
2023/07/08 01:14:21;;;;;;;;;;;15.60;70.80;;;;;;6152386;23;20015;-92
2023/07/08 01:16:59;;;;;;;;;;;15.60;70.70;;;;;;6188798;23;19919;-91
2023/07/08 01:19:34;;;;;;;;;;;15.60;71.10;;;;;;6161508;23;19924;-91
2023/07/08 01:25:43;;;;;;;;;;;15.50;71.20;;;;;;6200536;23;19923;-91
2023/07/08 01:28:29;;;;;;;;;;;15.50;71.30;;;;;;6154809;23;20019;-93
2023/07/08 01:31:00;;;;;;;;;;;15.50;71.50;;;;;;6166818;23;20239;-94
2023/07/08 01:34:09;;;;;;;;;;;15.50;71.30;;;;;;6129210;23;19920;-94
2023/07/08 01:39:40;;;;;;;;;;;15.40;71.50;;;;;;6206178;23;19923;-93
2023/07/08 01:42:41;;;;;;;;;;;15.40;71.50;;;;;;6169202;23;19943;-93
2023/07/08 01:45:37;;;;;;;;;;;;;;;;;;;;;
2023/07/08 01:48:37;;;;;;;;;;;15.30;71.80;;;;;;6167860;23;20393;-93
2023/07/08 01:54:28;;;;;;;;;;;;;;;;;;;;;
2023/07/08 01:56:58;;;;;;;;;;;15.20;71.90;;;;;;6211463;23;19916;-93
2023/07/08 01:59:43;;;;;;;;;;;15.20;72.00;;;;;;6173975;23;19998;-92
2023/07/08 02:02:25;;;;;;;;;;;;;;;;;;;;;
2023/07/08 02:08:16;;;;;;;;;;;15.20;72.00;;;;;;6168124;23;19923;-93
2023/07/08 02:14:07;;;;;;;;;;;15.00;72.00;;;;;;6237114;23;20242;-94
2023/07/08 02:16:49;;;;;;;;;;;15.00;72.10;;;;;;6213186;23;19978;-95
2023/07/08 02:22:27;;;;;;;;;;;15.00;72.10;;;;;;6184291;23;19955;-93
2023/07/08 02:25:03;;;;;;;;;;;;;;;;;;;;;
2023/07/08 02:27:49;;;;;;;;;;;15.00;72.10;;;;;;6215357;23;19920;-94
2023/07/08 02:30:34;;;;;;;;;;;15.00;72.00;;;;;;6200748;23;19919;-93
2023/07/08 02:33:02;;;;;;;;;;;15.00;72.30;;;;;;6174528;23;20322;-92
2023/07/08 02:35:39;;;;;;;;;;;15.00;72.30;;;;;;6167097;23;19938;-94
2023/07/08 02:38:16;;;;;;;;;;;14.90;72.30;;;;;;6185517;23;20336;-93
2023/07/08 02:40:54;;;;;;;;;;;14.90;72.40;;;;;;6192723;23;19919;-94
2023/07/08 02:43:31;;;;;;;;;;;14.90;72.30;;;;;;6170735;23;20705;-93
2023/07/08 02:46:11;;;;;;;;;;;14.90;72.40;;;;;;6130462;23;20449;-93
2023/07/08 02:48:50;;;;;;;;;;;;;;;;;;;;;
2023/07/08 02:51:31;;;;;;;;;;;14.90;72.60;;;;;;6133594;23;19960;-92
2023/07/08 02:54:11;;;;;;;;;;;14.90;72.80;;;;;;6095138;23;19924;-92
2023/07/08 02:57:10;;;;;;;;;;;;;;;;;;;;;
2023/07/08 02:59:53;;;;;;;;;;;14.90;72.80;;;;;;6130097;23;20379;-93
2023/07/08 03:02:55;;;;;;;;;;;;;;;;;;;;;
2023/07/08 03:09:02;;;;;;;;;;;14.90;72.80;;;;;;6107434;23;19931;-94
2023/07/08 03:12:07;;;;;;;;;;;;;;;;;;;;;
2023/07/08 03:14:38;;;;;;;;;;;14.90;72.90;;;;;;6125067;23;19947;-94
2023/07/08 03:17:45;;;;;;;;;;;14.80;72.90;;;;;;6183544;23;19946;-92
2023/07/08 03:20:35;;;;;;;;;;;14.80;73.00;;;;;;6215180;23;19924;-94
2023/07/08 03:23:31;;;;;;;;;;;14.80;73.00;;;;;;6126110;23;20594;-93
2023/07/08 03:32:31;;;;;;;;;;;;;;;;;;;;;
2023/07/08 03:35:24;;;;;;;;;;;14.80;73.40;;;;;;6199572;23;19930;-92
2023/07/08 03:37:49;;;;;;;;;;;14.90;73.40;;;;;;6209973;23;19923;-94
2023/07/08 03:40:15;;;;;;;;;;;14.90;73.10;;;;;;6217181;23;19975;-91
2023/07/08 03:46:26;;;;;;;;;;;;;;;;;;;;;
2023/07/08 03:52:24;;;;;;;;;;;15.00;73.30;;;;;;6136965;23;19944;-92
2023/07/08 03:55:02;;;;;;;;;;;;;;;;;;;;;
2023/07/08 03:57:44;;;;;;;;;;;15.00;73.30;;;;;;6204886;23;20373;-93
2023/07/08 04:00:41;;;;;;;;;;;15.00;73.40;;;;;;6191276;23;19919;-93
2023/07/08 04:03:40;;;;;;;;;;;;;;;;;;;;;
2023/07/08 04:12:43;;;;;;;;;;;;;;;;;;;;;
2023/07/08 04:19:07;;;;;;;;;;;;;;;;;;;;;
2023/07/08 04:24:34;;;;;;;;;;;15.30;73.30;;;;;;5905999;24;20006;-92
2023/07/08 04:27:18;;;;;;;;;;;15.30;73.30;;;;;;5894889;24;19927;-92
2023/07/08 04:30:07;;;;;;;;;;;15.40;73.00;;;;;;5918412;24;20678;-92
2023/07/08 04:35:23;;;;;;;;;;;15.50;72.90;;;;;;5941456;23;20399;-90
2023/07/08 04:37:51;;;;;;;;;;;15.60;72.80;;;;;;5923471;24;19929;-92
2023/07/08 04:40:48;;;;;;;;;;;15.60;72.80;;;;;;5952106;24;19934;-92
2023/07/08 04:43:57;;;;;;;;;;;;;;;;;;;;;
2023/07/08 04:46:39;;;;;;;;;;;15.70;72.70;;;;;;6069335;23;20453;-93
2023/07/08 04:49:47;;;;;;;;;;;15.80;72.50;;;;;;6127687;23;20576;-91
2023/07/08 04:52:27;;;;;;;;;;;15.80;72.60;;;;;;6162081;23;19924;-93
2023/07/08 04:54:53;;;;;;;;;;;15.90;72.20;;;;;;6095714;23;19944;-91
2023/07/08 05:00:23;;;;;;;;;;;16.10;72.20;;;;;;6170865;23;19952;-93
2023/07/08 05:02:53;;;;;;;;;;;16.10;72.00;;;;;;6124044;23;19920;-91
2023/07/08 05:05:29;;;;;;;;;;;16.20;72.00;;;;;;6139371;23;19974;-92
2023/07/08 05:07:57;;;;;;;;;;;16.40;72.00;;;;;;6151943;23;19993;-90
2023/07/08 05:10:23;;;;;;;;;;;16.40;71.90;;;;;;6193466;23;19920;-93
2023/07/08 05:12:49;;;;;;;;;;;16.60;72.20;;;;;;6206040;23;20301;-91
2023/07/08 05:15:45;;;;;;;;;;;;;;;;;;;;;
2023/07/08 05:18:22;;;;;;;;;;;17.00;70.90;;;;;;6209966;23;19919;-92
2023/07/08 05:21:06;;;;;;;;;;;;;;;;;;;;;
2023/07/08 05:23:41;;;;;;;;;;;17.60;70.30;;;;;;6169418;23;19930;-94
2023/07/08 05:26:16;;;;;;;;;;;17.90;69.70;;;;;;6212672;23;20003;-95
2023/07/08 05:29:03;;;;;;;;;;;;;;;;;;;;;
2023/07/08 05:31:32;;;;;;;;;;;18.30;69.10;;;;;;6219054;23;19920;-93
2023/07/08 05:34:05;;;;;;;;;;;18.60;68.00;;;;;;6174381;23;19946;-93
2023/07/08 05:36:56;;;;;;;;;;;18.80;68.10;;;;;;6167534;23;20437;-96
2023/07/08 05:39:35;;;;;;;;;;;;;;;;;;;;;
2023/07/08 05:42:18;;;;;;;;;;;;;;;;;;;;;
2023/07/08 05:44:59;;;;;;;;;;;19.10;67.20;;;;;;6209013;23;19947;-93
2023/07/08 05:47:58;;;;;;;;;;;;;;;;;;;;;
2023/07/08 05:50:38;;;;;;;;;;;19.20;67.00;;;;;;6232229;23;19938;-93
2023/07/08 05:53:51;;;;;;;;;;;19.30;66.50;;;;;;6170647;23;19924;-94
2023/07/08 05:56:19;;;;;;;;;;;19.40;66.80;;;;;;6226826;23;19920;-95
2023/07/08 05:58:44;;;;;;;;;;;19.50;66.70;;;;;;6167447;23;19975;-92
2023/07/08 06:01:10;;;;;;;;;;;19.60;66.70;;;;;;6216298;23;19920;-95
2023/07/08 06:03:41;;;;;;;;;;;19.70;66.50;;;;;;6170481;23;20369;-92
2023/07/08 06:06:11;;;;;;;;;;;19.70;66.70;;;;;;6189891;23;19924;-96
2023/07/08 06:08:37;;;;;;;;;;;19.70;66.50;;;;;;6171690;23;19923;-91
2023/07/08 06:11:06;;;;;;;;;;;19.80;66.80;;;;;;6169613;23;19974;-92
2023/07/08 06:13:44;;;;;;;;;;;19.90;66.10;;;;;;6129990;23;19959;-93
2023/07/08 06:16:21;;;;;;;;;;;19.90;65.70;;;;;;6109458;23;19967;-96
2023/07/08 06:18:54;;;;;;;;;;;20.00;65.90;;;;;;6127641;23;19940;-92
2023/07/08 06:21:20;;;;;;;;;;;20.00;65.90;;;;;;6149951;23;19966;-94
2023/07/08 06:23:48;;;;;;;;;;;20.10;65.90;;;;;;6191453;23;19924;-94
2023/07/08 06:29:22;;;;;;;;;;;20.30;64.80;;;;;;6241999;23;19990;-93
2023/07/08 06:31:48;;;;;;;;;;;20.20;64.90;;;;;;6193814;23;20006;-90
2023/07/08 06:34:16;;;;;;;;;;;20.10;65.50;;;;;;6164304;23;19955;-94
2023/07/08 06:36:49;;;;;;;;;;;20.10;65.70;;;;;;6191237;23;20230;-93
2023/07/08 06:39:16;;;;;;;;;;;20.30;65.70;;;;;;6193485;23;20009;-90
2023/07/08 06:42:15;;;;;;;;;;;;;;;;;;;;;
2023/07/08 06:44:51;;;;;;;;;;;20.30;65.00;;;;;;6236683;23;19923;-91
2023/07/08 06:47:45;;;;;;;;;;;20.30;65.40;;;;;;6185601;23;19954;-92
2023/07/08 06:50:10;;;;;;;;;;;20.50;65.50;;;;;;6170143;23;19995;-92
2023/07/08 06:52:37;;;;;;;;;;;20.50;64.20;;;;;;6172685;23;19970;-92
2023/07/08 06:55:12;;;;;;;;;;;20.50;65.00;;;;;;6173960;23;19943;-89
2023/07/08 07:00:33;;;;;;;;;;;20.70;65.10;;;;;;6217580;23;20289;-90
2023/07/08 07:03:18;;;;;;;;;;;20.70;65.00;;;;;;6172342;23;20035;-91
2023/07/08 07:05:47;;;;;;;;;;;20.80;64.50;;;;;;6208895;23;19920;-91
2023/07/08 07:08:12;;;;;;;;;;;20.80;64.20;;;;;;6154415;23;20053;-90
2023/07/08 07:10:43;;;;;;;;;;;20.80;64.00;;;;;;6192451;23;20663;-90
2023/07/08 07:13:37;;;;;;;;;;;;;;;;;;;;;
2023/07/08 07:16:23;;;;;;;;;;;20.80;64.00;;;;;;6220083;23;19926;-91
2023/07/08 07:18:56;;;;;;;;;;;20.80;64.60;;;;;;6157701;23;19927;-91
2023/07/08 07:21:35;;;;;;;;;;;20.90;64.10;;;;;;6220186;23;20447;-90
2023/07/08 07:24:21;;;;;;;;;;;21.00;63.60;;;;;;6152104;23;19990;-91
2023/07/08 07:26:50;;;;;;;;;;;21.00;63.30;;;;;;6189799;23;19966;-92
2023/07/08 07:29:25;;;;;;;;;;;21.00;63.50;;;;;;6159304;23;19920;-93
2023/07/08 07:32:14;;;;;;;;;;;21.10;63.20;;;;;;6193823;23;19928;-93
2023/07/08 07:35:00;;;;;;;;;;;21.10;64.40;;;;;;6216599;23;20327;-91
2023/07/08 07:37:31;;;;;;;;;;;21.20;63.30;;;;;;6212640;23;19923;-91
2023/07/08 07:39:59;;;;;;;;;;;21.30;63.80;;;;;;6192635;23;19926;-91
2023/07/08 07:42:46;;;;;;;;;;;21.30;63.30;;;;;;6160004;23;20015;-90
2023/07/08 07:51:52;;;;;;;;;;;21.60;62.70;;;;;;6156100;23;20254;-92
2023/07/08 07:54:23;;;;;;;;;;;21.70;63.00;;;;;;6110050;23;19932;-91
2023/07/08 07:56:51;;;;;;;;;;;21.70;63.60;;;;;;6102148;23;20270;-93
2023/07/08 07:59:25;;;;;;;;;;;21.80;63.50;;;;;;6083332;23;19948;-92
2023/07/08 08:02:11;;;;;;;;;;;21.90;63.10;;;;;;6218757;23;19991;-94
2023/07/08 08:04:40;;;;;;;;;;;21.90;61.60;;;;;;6191050;23;19920;-92
2023/07/08 08:07:21;;;;;;;;;;;21.90;61.90;;;;;;6171873;23;19957;-91
2023/07/08 08:09:52;;;;;;;;;;;22.00;61.80;;;;;;6163846;23;19926;-94
2023/07/08 08:12:24;;;;;;;;;;;22.00;61.60;;;;;;6142960;23;20316;-94
2023/07/08 08:14:53;;;;;;;;;;;22.10;62.10;;;;;;6145882;23;19926;-93
2023/07/08 08:17:28;;;;;;;;;;;;;;;;;;;;;
2023/07/08 08:19:59;;;;;;;;;;;22.20;62.60;;;;;;6194826;23;19951;-91
2023/07/08 08:22:50;;;;;;;;;;;22.30;61.80;;;;;;6156476;23;19974;-93
2023/07/08 08:28:44;;;;;;;;;;;22.40;62.50;;;;;;6146297;23;19920;-92
2023/07/08 08:31:34;;;;;;;;;;;22.50;62.30;;;;;;6158241;23;20030;-93
2023/07/08 08:34:13;;;;;;;;;;;;;;;;;;;;;
2023/07/08 08:36:47;;;;;;;;;;;22.60;60.70;;;;;;6213343;23;20626;-92
2023/07/08 08:42:25;;;;;;;;;;;22.80;61.80;;;;;;6194477;23;19928;-90
2023/07/08 08:44:53;;;;;;;;;;;22.80;61.10;;;;;;6215396;23;19941;-91
2023/07/08 08:48:07;;;;;;;;;;;22.90;61.10;;;;;;6185292;23;19920;-92
2023/07/08 08:50:48;;;;;;;;;;;;;;;;;;;;;
2023/07/08 08:53:21;;;;;;;;;;;23.00;61.10;;;;;;6113507;23;19920;-93
2023/07/08 08:56:04;;;;;;;;;;;;;;;;;;;;;
2023/07/08 08:58:39;;;;;;;;;;;23.20;61.50;;;;;;6171037;23;20338;-90
2023/07/08 09:01:20;;;;;;;;;;;23.30;60.40;;;;;;6193288;23;19927;-91
2023/07/08 09:03:55;;;;;;;;;;;23.40;61.00;;;;;;6178704;23;19926;-93
2023/07/08 09:06:58;;;;;;;;;;;23.40;60.80;;;;;;6190959;23;19924;-94
2023/07/08 09:09:47;;;;;;;;;;;23.50;61.30;;;;;;6190831;23;19920;-92
2023/07/08 09:12:23;;;;;;;;;;;23.60;60.70;;;;;;6176361;22;20287;-93
2023/07/08 09:14:51;;;;;;;;;;;23.60;60.70;;;;;;6194149;23;19919;-92
2023/07/08 09:17:46;;;;;;;;;;;23.70;60.60;;;;;;6214328;23;19919;-93
2023/07/08 09:20:22;;;;;;;;;;;23.80;60.80;;;;;;6196258;23;19920;-90
2023/07/08 09:22:53;;;;;;;;;;;23.90;60.10;;;;;;6193052;23;19924;-94
2023/07/08 09:25:48;;;;;;;;;;;24.00;60.00;;;;;;6180220;23;19923;-92
2023/07/08 09:28:17;;;;;;;;;;;24.00;59.60;;;;;;6112632;23;20248;-95
2023/07/08 09:30:53;;;;;;;;;;;24.20;59.00;;;;;;6170249;23;19920;-89
2023/07/08 09:33:48;;;;;;;;;;;24.40;60.60;;;;;;6192204;23;19925;-94
2023/07/08 09:36:18;;;;;;;;;;;24.40;59.90;;;;;;6202068;23;19923;-90
2023/07/08 09:38:58;;;;;;;;;;;;;;;;;;;;;
2023/07/08 09:41:31;;;;;;;;;;;24.60;58.10;;;;;;6220015;23;19926;-89
2023/07/08 09:44:28;;;;;;;;;;;;;;;;;;;;;
2023/07/08 09:47:41;;;;;;;;;;;24.80;59.70;;;;;;6214346;23;19916;-94
2023/07/08 09:50:21;;;;;;;;;;;24.90;58.80;;;;;;6146801;23;19947;-96
2023/07/08 09:52:53;;;;;;;;;;;25.00;58.00;;;;;;6081733;23;19927;-91
2023/07/08 09:55:22;;;;;;;;;;;25.00;58.90;;;;;;6061341;23;19931;-92
2023/07/08 09:57:54;;;;;;;;;;;25.00;58.70;;;;;;6052247;23;19995;-92
2023/07/08 10:00:40;;;;;;;;;;;25.00;57.90;;;;;;6074361;23;19921;-91
2023/07/08 10:06:20;;;;;;;;;;;25.20;59.00;;;;;;6089298;23;19956;-93
2023/07/08 10:08:58;;;;;;;;;;;25.30;59.00;;;;;;6131317;23;19919;-89
2023/07/08 10:11:33;;;;;;;;;;;25.40;59.00;;;;;;6190145;23;20224;-88
2023/07/08 10:14:35;;;;;;;;;;;25.40;59.30;;;;;;6194468;23;19927;-90
2023/07/08 10:17:01;;;;;;;;;;;25.50;58.00;;;;;;6183681;23;19920;-89
2023/07/08 10:19:27;;;;;;;;;;;25.60;58.10;;;;;;6194007;23;19968;-90
2023/07/08 10:22:22;;;;;;;;;;;25.60;59.10;;;;;;6214710;23;19920;-91
2023/07/08 10:25:29;;;;;;;;;;;;;;;;;;;;;
2023/07/08 10:28:30;;;;;;;;;;;25.80;57.70;;;;;;6185649;23;20258;-90
2023/07/08 10:31:02;;;;;;;;;;;25.80;57.70;;;;;;6195733;23;19919;-90
2023/07/08 10:34:09;;;;;;;;;;;25.90;58.90;;;;;;6211558;23;19946;-91
2023/07/08 10:36:34;;;;;;;;;;;26.00;58.40;;;;;;6160616;23;19924;-91
2023/07/08 10:43:08;;;;;;;;;;;26.00;58.80;;;;;;6051905;23;20021;-93
2023/07/08 10:45:51;;;;;;;;;;;26.10;57.80;;;;;;6129206;23;19995;-93
2023/07/08 10:48:16;;;;;;;;;;;26.10;58.50;;;;;;6212896;23;19971;-93
2023/07/08 10:51:09;;;;;;;;;;;26.20;58.20;;;;;;6240752;23;19919;-96
2023/07/08 10:53:31;;;;;;;;;;;26.20;57.50;;;;;;6173831;23;19924;-92
2023/07/08 10:56:18;;;;;;;;;;;26.30;57.70;;;;;;6169991;23;19998;-92
2023/07/08 10:58:44;;;;;;;;;;;26.40;58.40;;;;;;6157666;23;19927;-87
2023/07/08 11:01:13;;;;;;;;;;;26.40;57.40;;;;;;6187767;23;19920;-87
2023/07/08 11:03:48;;;;;;;;;;;26.50;57.00;;;;;;6186698;23;19920;-86
2023/07/08 11:06:26;;;;;;;;;;;26.50;56.60;;;;;;6185653;23;19920;-88
2023/07/08 11:08:56;;;;;;;;;;;26.50;56.60;;;;;;6236829;23;19934;-86
2023/07/08 11:11:25;;;;;;;;;;;26.50;56.20;;;;;;6192301;23;19923;-85
2023/07/08 11:13:58;;;;;;;;;;;26.60;56.30;;;;;;6215890;23;19982;-87
2023/07/08 11:16:33;;;;;;;;;;;26.70;56.70;;;;;;6213977;23;19994;-90
2023/07/08 11:19:03;;;;;;;;;;;26.80;57.20;;;;;;6213574;23;19947;-86
2023/07/08 11:21:39;;;;;;;;;;;26.90;56.30;;;;;;6242204;23;19942;-87
2023/07/08 11:24:13;;;;;;;;;;;26.90;55.90;;;;;;6241742;23;19923;-87
2023/07/08 11:26:45;;;;;;;;;;;26.90;56.00;;;;;;6211471;23;20358;-86
2023/07/08 11:29:34;;;;;;;;;;;27.00;56.00;;;;;;6214757;23;20234;-86
2023/07/08 11:32:00;;;;;;;;;;;27.10;56.80;;;;;;6216614;23;19919;-87
2023/07/08 11:34:28;;;;;;;;;;;27.20;56.30;;;;;;6242002;23;20335;-87
2023/07/08 11:36:55;;;;;;;;;;;27.30;56.60;;;;;;6186600;23;20396;-87
2023/07/08 11:39:31;;;;;;;;;;;27.30;55.00;;;;;;6192432;23;20350;-89
2023/07/08 11:42:15;;;;;;;;;;;27.30;55.70;;;;;;6217486;23;19925;-89
2023/07/08 11:44:47;;;;;;;;;;;27.40;54.80;;;;;;6216770;23;19919;-88
2023/07/08 11:47:17;;;;;;;;;;;27.40;54.70;;;;;;6235640;23;19924;-87
2023/07/08 11:49:43;;;;;;;;;;;27.50;54.30;;;;;;6242687;23;19920;-86
2023/07/08 11:52:14;;;;;;;;;;;27.50;55.10;;;;;;6226208;23;19920;-87
2023/07/08 11:54:44;;;;;;;;;;;27.50;54.30;;;;;;6192978;23;19920;-87
2023/07/08 11:57:17;;;;;;;;;;;27.50;54.10;;;;;;6233923;23;19919;-87
2023/07/08 11:59:44;;;;;;;;;;;27.60;54.20;;;;;;6218055;23;20322;-87
2023/07/08 12:02:16;;;;;;;;;;;27.70;53.70;;;;;;6191676;23;19920;-87
2023/07/08 12:05:03;;;;;;;;;;;27.70;56.00;;;;;;6193083;23;19947;-85
2023/07/08 12:07:40;;;;;;;;;;;27.80;55.10;;;;;;6208047;23;20202;-89
2023/07/08 12:10:17;;;;;;;;;;;27.80;54.70;;;;;;6217198;23;19998;-86
2023/07/08 12:12:44;;;;;;;;;;;27.90;54.70;;;;;;6215474;23;19920;-88
2023/07/08 12:15:11;;;;;;;;;;;27.90;55.30;;;;;;6242716;23;19942;-86
2023/07/08 12:17:38;;;;;;;;;;;28.00;55.50;;;;;;6217857;23;19920;-86
2023/07/08 12:20:07;;;;;;;;;;;28.10;55.00;;;;;;6217129;23;19923;-85
2023/07/08 12:22:33;;;;;;;;;;;28.10;54.80;;;;;;6213792;23;19991;-86
2023/07/08 12:25:05;;;;;;;;;;;28.20;54.40;;;;;;6242210;23;19982;-86
2023/07/08 12:27:31;;;;;;;;;;;28.30;53.70;;;;;;6234297;23;19919;-88
2023/07/08 12:29:57;;;;;;;;;;;28.30;54.10;;;;;;6216463;23;19920;-86
2023/07/08 12:32:25;;;;;;;;;;;28.30;53.10;;;;;;6216742;23;19954;-90
2023/07/08 12:34:51;;;;;;;;;;;28.30;54.50;;;;;;6242719;23;19923;-91
2023/07/08 12:37:16;;;;;;;;;;;28.30;53.00;;;;;;6210597;23;20350;-87
2023/07/08 12:39:42;;;;;;;;;;;28.30;53.70;;;;;;6216990;23;19920;-87
2023/07/08 12:42:10;;;;;;;;;;;28.30;51.70;;;;;;6211513;23;19927;-85
2023/07/08 12:44:39;;;;;;;;;;;28.30;53.30;;;;;;6218157;23;19927;-85
2023/07/08 12:47:04;;;;;;;;;;;28.40;52.40;;;;;;6234532;23;19973;-86
2023/07/08 12:49:30;;;;;;;;;;;28.40;53.70;;;;;;6218180;23;19923;-87
2023/07/08 12:51:56;;;;;;;;;;;28.50;53.10;;;;;;6218545;23;19919;-85
2023/07/08 12:54:22;;;;;;;;;;;28.50;52.70;;;;;;6217048;23;19926;-87
2023/07/08 12:56:47;;;;;;;;;;;28.50;52.80;;;;;;6186453;23;19970;-90
2023/07/08 12:59:18;;;;;;;;;;;28.50;52.60;;;;;;6216645;23;20343;-90
2023/07/08 13:01:45;;;;;;;;;;;28.60;53.20;;;;;;6194617;23;19926;-90
2023/07/08 13:04:12;;;;;;;;;;;28.60;52.00;;;;;;6192762;23;19920;-90
2023/07/08 13:06:38;;;;;;;;;;;28.70;52.60;;;;;;6239361;23;20715;-91
2023/07/08 13:09:27;;;;;;;;;;;28.80;53.60;;;;;;6185534;23;19924;-89
2023/07/08 13:11:55;;;;;;;;;;;28.90;52.50;;;;;;6193854;23;19920;-89
2023/07/08 13:14:22;;;;;;;;;;;28.90;51.30;;;;;;6187136;23;20668;-89
2023/07/08 13:16:49;;;;;;;;;;;28.90;52.00;;;;;;6157383;23;19920;-91
2023/07/08 13:19:14;;;;;;;;;;;28.90;52.80;;;;;;6171572;23;20386;-87
2023/07/08 13:21:40;;;;;;;;;;;28.90;51.00;;;;;;6187232;23;19924;-88
2023/07/08 13:24:10;;;;;;;;;;;28.90;52.10;;;;;;6184522;23;20370;-89
2023/07/08 13:26:36;;;;;;;;;;;28.90;52.10;;;;;;6181601;23;19930;-90
2023/07/08 13:29:14;;;;;;;;;;;28.90;51.40;;;;;;6158391;23;19923;-90
2023/07/08 13:31:42;;;;;;;;;;;29.00;51.90;;;;;;6186818;23;20323;-90
2023/07/08 13:34:09;;;;;;;;;;;29.00;51.80;;;;;;6160446;23;20227;-90
2023/07/08 13:36:36;;;;;;;;;;;29.00;51.30;;;;;;6156858;23;20073;-91
2023/07/08 13:39:05;;;;;;;;;;;29.00;51.30;;;;;;6159361;23;19932;-89
2023/07/08 13:41:30;;;;;;;;;;;29.00;51.40;;;;;;6161836;23;19924;-91
2023/07/08 13:43:56;;;;;;;;;;;29.00;51.00;;;;;;6166791;23;19930;-89
2023/07/08 13:46:36;;;;;;;;;;;29.10;51.50;;;;;;6182937;23;19927;-92
2023/07/08 13:49:13;;;;;;;;;;;29.10;51.40;;;;;;6158761;23;19923;-89
2023/07/08 13:51:39;;;;;;;;;;;29.20;52.10;;;;;;6186681;23;19923;-88
2023/07/08 13:54:18;;;;;;;;;;;29.20;51.90;;;;;;6184725;23;19930;-88
2023/07/08 13:56:44;;;;;;;;;;;29.30;52.40;;;;;;6156065;23;19995;-92
2023/07/08 13:59:12;;;;;;;;;;;29.40;51.10;;;;;;6158069;23;19996;-89
2023/07/08 14:01:39;;;;;;;;;;;29.50;51.00;;;;;;6211889;23;20006;-89
2023/07/08 14:04:05;;;;;;;;;;;29.50;51.20;;;;;;6186572;23;19931;-90
2023/07/08 14:06:32;;;;;;;;;;;29.50;51.40;;;;;;6158913;23;19954;-92
2023/07/08 14:09:04;;;;;;;;;;;29.50;51.30;;;;;;6173141;23;19919;-88
2023/07/08 14:11:30;;;;;;;;;;;29.60;51.20;;;;;;6218144;23;19919;-90
2023/07/08 14:13:55;;;;;;;;;;;29.70;52.40;;;;;;6241203;23;19947;-89
2023/07/08 14:16:27;;;;;;;;;;;29.70;51.70;;;;;;6190330;23;20445;-91
2023/07/08 14:18:54;;;;;;;;;;;29.70;52.40;;;;;;6238734;23;19920;-89
2023/07/08 14:21:20;;;;;;;;;;;29.70;51.20;;;;;;6167897;23;19959;-88
2023/07/08 14:23:51;;;;;;;;;;;29.90;51.30;;;;;;6216272;23;19927;-90
2023/07/08 14:26:16;;;;;;;;;;;29.90;51.10;;;;;;6191336;23;20281;-94
2023/07/08 14:28:44;;;;;;;;;;;30.00;51.70;;;;;;6237125;23;19926;-89
2023/07/08 14:31:16;;;;;;;;;;;30.00;50.50;;;;;;6192254;23;20338;-89
2023/07/08 14:33:42;;;;;;;;;;;30.00;50.50;;;;;;6190850;23;19920;-89
2023/07/08 14:36:11;;;;;;;;;;;30.00;50.40;;;;;;6242719;23;19995;-92
2023/07/08 14:38:37;;;;;;;;;;;30.00;50.30;;;;;;6187808;23;20215;-89
2023/07/08 14:41:05;;;;;;;;;;;30.00;50.20;;;;;;6192337;23;19949;-89
2023/07/08 14:43:34;;;;;;;;;;;30.00;50.50;;;;;;6241683;23;19957;-90
2023/07/08 14:46:01;;;;;;;;;;;30.00;50.30;;;;;;6192589;23;19920;-87
2023/07/08 14:48:29;;;;;;;;;;;30.10;50.20;;;;;;6233624;23;19920;-89
2023/07/08 14:50:57;;;;;;;;;;;30.20;51.50;;;;;;6193085;23;19919;-92
2023/07/08 14:53:25;;;;;;;;;;;30.30;51.10;;;;;;6192136;23;19920;-89
2023/07/08 14:55:52;;;;;;;;;;;30.40;50.80;;;;;;6192052;23;19927;-89
2023/07/08 14:58:22;;;;;;;;;;;30.50;50.90;;;;;;6208636;23;20353;-89
2023/07/08 15:00:49;;;;;;;;;;;30.50;50.60;;;;;;6217960;23;19923;-90
2023/07/08 15:03:17;;;;;;;;;;;30.50;50.00;;;;;;6190829;23;19919;-87
2023/07/08 15:05:45;;;;;;;;;;;30.60;51.20;;;;;;6191761;23;20334;-88
2023/07/08 15:08:10;;;;;;;;;;;30.60;50.00;;;;;;6208191;23;19948;-87
2023/07/08 15:10:41;;;;;;;;;;;30.70;51.20;;;;;;6217088;23;19919;-89
2023/07/08 15:13:09;;;;;;;;;;;30.70;50.40;;;;;;6179033;23;19945;-88
2023/07/08 15:15:35;;;;;;;;;;;30.80;49.30;;;;;;6217281;23;19920;-88
2023/07/08 15:18:24;;;;;;;;;;;30.80;50.00;;;;;;6184943;23;20468;-88
2023/07/08 15:20:53;;;;;;;;;;;30.80;48.90;;;;;;6174080;23;19990;-88
2023/07/08 15:23:21;;;;;;;;;;;30.90;48.40;;;;;;6216227;23;19994;-87
2023/07/08 15:25:48;;;;;;;;;;;30.90;49.10;;;;;;6216498;23;19920;-90
2023/07/08 15:28:24;;;;;;;;;;;30.90;48.50;;;;;;6233076;23;19947;-88
2023/07/08 15:30:50;;;;;;;;;;;31.00;48.50;;;;;;6192417;23;19968;-87
2023/07/08 15:33:16;;;;;;;;;;;31.00;48.30;;;;;;6190677;23;19920;-88
2023/07/08 15:35:43;;;;;;;;;;;31.10;50.00;;;;;;6216770;23;20331;-87
2023/07/08 15:38:09;;;;;;;;;;;31.10;50.40;;;;;;6208630;23;19926;-87
2023/07/08 15:40:38;;;;;;;;;;;31.20;49.90;;;;;;6217633;23;19920;-89
2023/07/08 15:43:05;;;;;;;;;;;31.20;49.20;;;;;;6240768;23;20002;-89
2023/07/08 15:45:33;;;;;;;;;;;31.20;49.20;;;;;;6242361;23;19923;-86
2023/07/08 15:47:58;;;;;;;;;;;31.10;50.70;;;;;;6182227;23;19923;-92
2023/07/08 15:50:27;;;;;;;;;;;31.10;49.60;;;;;;6216763;23;20364;-89
2023/07/08 15:52:53;;;;;;;;;;;31.10;49.30;;;;;;6185860;23;20362;-96
2023/07/08 15:55:57;;;;;;;;;;;31.20;48.30;;;;;;6200282;23;19978;-93
2023/07/08 15:58:26;;;;;;;;;;;31.20;49.10;;;;;;6209246;23;20235;-88
2023/07/08 16:00:52;;;;;;;;;;;31.20;49.90;;;;;;6192158;23;20012;-88
2023/07/08 16:03:21;;;;;;;;;;;31.20;48.90;;;;;;6189251;23;19923;-90
2023/07/08 16:05:47;;;;;;;;;;;31.30;49.30;;;;;;6242787;23;19919;-88
2023/07/08 16:08:13;;;;;;;;;;;31.30;49.70;;;;;;6181239;23;20350;-87
2023/07/08 16:10:41;;;;;;;;;;;31.30;49.90;;;;;;6215834;23;19920;-89
2023/07/08 16:13:11;;;;;;;;;;;31.30;49.10;;;;;;6172549;23;19935;-90
2023/07/08 16:15:39;;;;;;;;;;;31.30;49.50;;;;;;6217573;23;19934;-94
2023/07/08 16:18:09;;;;;;;;;;;31.30;49.10;;;;;;6210414;23;19935;-87
2023/07/08 16:20:34;;;;;;;;;;;31.30;49.60;;;;;;6218497;23;20294;-87
2023/07/08 16:23:00;;;;;;;;;;;31.30;49.60;;;;;;6217481;23;19926;-86
2023/07/08 16:25:35;;;;;;;;;;;31.30;49.10;;;;;;6193674;23;19926;-85
2023/07/08 16:28:01;;;;;;;;;;;31.40;48.90;;;;;;6183718;23;19950;-84
2023/07/08 16:30:27;;;;;;;;;;;31.30;48.20;;;;;;6243537;23;20330;-88
2023/07/08 16:32:56;;;;;;;;;;;31.30;48.50;;;;;;6191901;23;19926;-86
2023/07/08 16:35:22;;;;;;;;;;;31.30;48.20;;;;;;6218950;23;19924;-87
2023/07/08 16:37:49;;;;;;;;;;;31.30;48.50;;;;;;6210335;23;19920;-86
2023/07/08 16:40:16;;;;;;;;;;;31.20;49.00;;;;;;6244016;23;19958;-86
2023/07/08 16:42:43;;;;;;;;;;;31.20;49.30;;;;;;6217567;23;19990;-85
2023/07/08 16:45:12;;;;;;;;;;;31.20;49.70;;;;;;6218337;23;19923;-85
2023/07/08 16:47:38;;;;;;;;;;;31.20;50.10;;;;;;6234546;23;19924;-85
2023/07/08 16:50:08;;;;;;;;;;;31.10;50.40;;;;;;6218318;23;19981;-87
2023/07/08 16:52:34;;;;;;;;;;;31.10;50.40;;;;;;6242869;23;19919;-85
2023/07/08 16:54:59;;;;;;;;;;;31.10;50.60;;;;;;6242631;23;19919;-86
2023/07/08 16:57:26;;;;;;;;;;;31.10;51.10;;;;;;6234447;23;19934;-85
2023/07/08 16:59:52;;;;;;;;;;;31.10;50.40;;;;;;6243652;23;19926;-84
2023/07/08 17:02:19;;;;;;;;;;;31.10;50.50;;;;;;6241554;23;20323;-88
2023/07/08 17:04:46;;;;;;;;;;;31.10;50.50;;;;;;6217915;23;19920;-86
2023/07/08 17:07:12;;;;;;;;;;;31.10;50.80;;;;;;6209462;23;19930;-85
2023/07/08 17:09:38;;;;;;;;;;;31.00;51.10;;;;;;6217797;23;20006;-85
2023/07/08 17:12:07;;;;;;;;;;;31.00;50.30;;;;;;6242189;23;19923;-85